Dillingham Airport Dillingham US
ICAO: PADL
IATA:
Category: Medium
Scheduled Services:

Elevation: 81 ft
TransAlt. 18000 ft.

Airport Communications:
ATIS:125
AWOS 3:135.55
ANCHORAGE CNTR:132.75
CTAF:123.6
RDO:122.3

PADL Zoom In..

Runways:

(A) RW 01 length 6400 ft width 150 ft
LOC 111.90 / hdg 11

(B) RW 19 length 6400 ft width 150 ft
LOC 111.90 / hdg 191

Location; PADL
Day. 21 / Time. 23.56 Zulu
* Altimeter: 29.84
* Temperature: -14° c. -6.8°f.
* Wind from: 350° Speed 11 kn.
Dewpoint: -23° c.
Visibility: 10 Statute Miles.
Clouds: Clear (automated report).

PADL 212356Z 35011KT 10SM CLR M14/M23 A2984 RMK AO2 SLP109 60000 T11391233 11139 21156 56010


Wind From 350°
Speed 11 kn.

jpsM music video
CHECK IT OUT

jpsM - It Moves..

 
jpsmedia.com for Web Design  worldairports.se 2018   terms of use